Alsa — E5U2606 — position and weather

sailwx.info

Track history (hours):
 
Tides and Currents Weather Stations Pressure Air Temp Water Temp Dewpoint Dewpoint Depression Visibility Wind Speed Wind Dir Waves Ship Positions

Alsa

Last reported at 2017-Nov-14 12:34 UTC. Time now 2017-Nov-24 16:50 UTC.
Position N 37°18' W 000°43'.
Warning: this ship's position is 10 days out of date.

Length 91 m; draft 5.4 m.

Type: Ship. MMSI: 518659000.

Date/timePositionNaut miles runAvg speedWind from/ knotsBaromVisibWave heightAir tempDewpointWater temp
2017-Nov-14 12:34N 37°18' W 000°43'1 7.7
2017-Nov-14 12:28N 37°19' W 000°43'4 7.6
2017-Nov-14 11:58N 37°21' W 000°46'4 7.7
2017-Nov-14 11:30N 37°24' W 000°49'4 7.9
2017-Nov-14 11:00N 37°27' W 000°53'4 8.2
2017-Nov-14 10:29N 37°30' W 000°56'  
2017-Nov-09 12:26N 37°32' W 001°00'1 3.3
2017-Nov-09 12:00N 37°31' W 000°60'2 4.9
2017-Nov-09 11:30N 37°28' W 000°58'4 8.6
2017-Nov-09 11:00N 37°24' W 000°57'5 8.4
2017-Nov-09 10:26N 37°20' W 000°56'4 8.3
2017-Nov-09 09:56N 37°16' W 000°54'3 8.1
2017-Nov-09 09:30N 37°12' W 000°53'  
Track history (hours):
 
Tides and Currents Weather Stations Pressure Air Temp Water Temp Dewpoint Dewpoint Depression Visibility Wind Speed Wind Dir Waves Ship Positions

Alsa

Last reported at 2017-Nov-14 12:34 UTC. Time now 2017-Nov-24 16:50 UTC.
Position N 37°18' W 000°43'.
Warning: this ship's position is 10 days out of date.

Length 91 m; draft 5.4 m.

Type: Ship. MMSI: 518659000.

Date/timePositionNaut miles runAvg speedWind from/ knotsBaromVisibWave heightAir tempDewpointWater temp
2017-Nov-14 12:34N 37°18' W 000°43'1 7.7
2017-Nov-14 12:28N 37°19' W 000°43'4 7.6
2017-Nov-14 11:58N 37°21' W 000°46'4 7.7
2017-Nov-14 11:30N 37°24' W 000°49'4 7.9
2017-Nov-14 11:00N 37°27' W 000°53'4 8.2
2017-Nov-14 10:29N 37°30' W 000°56'  
2017-Nov-09 12:26N 37°32' W 001°00'1 3.3
2017-Nov-09 12:00N 37°31' W 000°60'2 4.9
2017-Nov-09 11:30N 37°28' W 000°58'4 8.6
2017-Nov-09 11:00N 37°24' W 000°57'5 8.4
2017-Nov-09 10:26N 37°20' W 000°56'4 8.3
2017-Nov-09 09:56N 37°16' W 000°54'3 8.1
2017-Nov-09 09:30N 37°12' W 000°53'  

Dump ship's entire track history